<?xml version='1.0' encoding='UTF-8'?><gpx version="1.1" creator="JPX - https://github.com/jenetics/jpx" xmlns="http://www.topografix.com/GPX/1/1"><trk><trkseg><trkpt lat="41.58972521901552" lon="13.759059597637428"><ele>1086.0</ele><time>2026-04-19T09:32:10.999Z</time></trkpt><trkpt lat="41.5897509454155" lon="13.759162778593272"><ele>1086.0</ele><time>2026-04-19T09:32:13.999Z</time></trkpt><trkpt lat="41.58974896402122" lon="13.759258509012817"><ele>1086.0</ele><time>2026-04-19T09:32:15.999Z</time></trkpt><trkpt lat="41.58975440222159" lon="13.759357358712867"><ele>1086.0</ele><time>2026-04-19T09:32:18.999Z</time></trkpt><trkpt lat="41.58973846897696" lon="13.759445284203286"><ele>1086.0</ele><time>2026-04-19T09:32:21.999Z</time></trkpt><trkpt lat="41.589711506610186" lon="13.759536925159065"><ele>1086.0</ele><time>2026-04-19T09:32:23.999Z</time></trkpt><trkpt lat="41.58967750832055" lon="13.759608581136446"><ele>1086.0</ele><time>2026-04-19T09:32:25.999Z</time></trkpt><trkpt lat="41.58965031044738" lon="13.759698436139747"><ele>1083.7142857142858</ele><time>2026-04-19T09:32:28.999Z</time></trkpt><trkpt lat="41.58963480786707" lon="13.75979271176163"><ele>1081.4285714285713</ele><time>2026-04-19T09:32:32.999Z</time></trkpt><trkpt lat="41.589630423304264" lon="13.759889478231417"><ele>1079.142857142857</ele><time>2026-04-19T09:32:36.999Z</time></trkpt><trkpt lat="41.589654631982704" lon="13.759972128550944"><ele>1076.857142857143</ele><time>2026-04-19T09:32:44.999Z</time></trkpt><trkpt lat="41.58968733272831" lon="13.760051672114072"><ele>1074.5714285714287</ele><time>2026-04-19T09:32:49.999Z</time></trkpt><trkpt lat="41.589712104623416" lon="13.760145185353716"><ele>1072.2857142857142</ele><time>2026-04-19T09:32:51.999Z</time></trkpt><trkpt lat="41.58974343918036" lon="13.760232698035866"><ele>1070.0</ele><time>2026-04-19T09:32:54.999Z</time></trkpt><trkpt lat="41.589761523088725" lon="13.76033217358535"><ele>1066.3333333333335</ele><time>2026-04-19T09:32:57.999Z</time></trkpt><trkpt lat="41.58979352967624" lon="13.760417834711292"><ele>1062.6666666666667</ele><time>2026-04-19T09:32:59.999Z</time></trkpt><trkpt lat="41.58984119391804" lon="13.760495490919416"><ele>1059.0</ele><time>2026-04-19T09:33:02.999Z</time></trkpt><trkpt lat="41.58986283583685" lon="13.760582012562827"><ele>1055.3333333333333</ele><time>2026-04-19T09:33:05.999Z</time></trkpt><trkpt lat="41.589907014357" lon="13.760693356277342"><ele>1051.6666666666665</ele><time>2026-04-19T09:33:08.999Z</time></trkpt><trkpt lat="41.58991884744713" lon="13.760787971727234"><ele>1048.0</ele><time>2026-04-19T09:33:11.999Z</time></trkpt><trkpt lat="41.589915638306486" lon="13.76090459754794"><ele>1048.0</ele><time>2026-04-19T09:33:47Z</time></trkpt><trkpt lat="41.589934227094375" lon="13.76102856544977"><ele>1048.0</ele><time>2026-04-19T09:33:57Z</time></trkpt><trkpt lat="41.5899479852577" lon="13.761132495853037"><ele>1048.0</ele><time>2026-04-19T09:34:00Z</time></trkpt><trkpt lat="41.58994875344881" lon="13.76122472554362"><ele>1048.0</ele><time>2026-04-19T09:34:02Z</time></trkpt><trkpt lat="41.58996391891106" lon="13.76132395926104"><ele>1048.0</ele><time>2026-04-19T09:34:05Z</time></trkpt><trkpt lat="41.58994471588032" lon="13.76141538052747"><ele>1048.0</ele><time>2026-04-19T09:34:07.999Z</time></trkpt><trkpt lat="41.589949055785624" lon="13.761500748577479"><ele>1045.3333333333333</ele><time>2026-04-19T09:34:11.999Z</time></trkpt><trkpt lat="41.59001159697051" lon="13.761575694168764"><ele>1042.6666666666665</ele><time>2026-04-19T09:34:17.999Z</time></trkpt><trkpt lat="41.58999205985759" lon="13.761659513829043"><ele>1040.0</ele><time>2026-04-19T09:34:21.999Z</time></trkpt><trkpt lat="41.589962784478274" lon="13.761743928199577"><ele>1037.3333333333333</ele><time>2026-04-19T09:34:23.999Z</time></trkpt><trkpt lat="41.58990890775691" lon="13.761825214152953"><ele>1034.6666666666667</ele><time>2026-04-19T09:34:50.999Z</time></trkpt><trkpt lat="41.589832205979015" lon="13.761855600751126"><ele>1032.0</ele><time>2026-04-19T09:35:11.999Z</time></trkpt><trkpt lat="41.58975699583666" lon="13.761862712050432"><ele>1031.9999999999998</ele><time>2026-04-19T09:35:14.999Z</time></trkpt><trkpt lat="41.589700664248745" lon="13.761943172381681"><ele>1032.0</ele><time>2026-04-19T09:35:18.999Z</time></trkpt><trkpt lat="41.58967010906153" lon="13.762018877167213"><ele>1032.0</ele><time>2026-04-19T09:35:24Z</time></trkpt><trkpt lat="41.58966604528027" lon="13.762103109921407"><ele>1032.0</ele><time>2026-04-19T09:35:30Z</time></trkpt><trkpt lat="41.58963832536444" lon="13.762182461092323"><ele>1032.0</ele><time>2026-04-19T09:35:33Z</time></trkpt><trkpt lat="41.589634774775575" lon="13.762277207779814"><ele>1031.9999999999998</ele><time>2026-04-19T09:35:38Z</time></trkpt><trkpt lat="41.58962468508784" lon="13.762381699772524"><ele>1032.0</ele><time>2026-04-19T09:35:45Z</time></trkpt><trkpt lat="41.58957513834861" lon="13.762462623467275"><ele>1032.0</ele><time>2026-04-19T09:35:52Z</time></trkpt><trkpt lat="41.58955848158367" lon="13.762579975062428"><ele>1032.0</ele><time>2026-04-19T09:35:57Z</time></trkpt><trkpt lat="41.58956208093225" lon="13.762671381204743"><ele>1032.0</ele><time>2026-04-19T09:36:00Z</time></trkpt><trkpt lat="41.5895365758085" lon="13.76277438598668"><ele>1032.0</ele><time>2026-04-19T09:36:04Z</time></trkpt><trkpt lat="41.589535989145375" lon="13.76286485154279"><ele>1032.0</ele><time>2026-04-19T09:36:07Z</time></trkpt><trkpt lat="41.58951907912011" lon="13.762954745160519"><ele>1032.0</ele><time>2026-04-19T09:36:10Z</time></trkpt><trkpt lat="41.58945884381496" lon="13.763067694891772"><ele>1026.3333333333333</ele><time>2026-04-19T09:36:23.999Z</time></trkpt><trkpt lat="41.58941875840117" lon="13.763169984475729"><ele>1020.6666666666667</ele><time>2026-04-19T09:36:25.999Z</time></trkpt><trkpt lat="41.58939386206366" lon="13.763272991880969"><ele>1015.0</ele><time>2026-04-19T09:36:28.999Z</time></trkpt><trkpt lat="41.58938289500881" lon="13.763363186306954"><ele>1009.3333333333334</ele><time>2026-04-19T09:36:31.999Z</time></trkpt><trkpt lat="41.58933639998541" lon="13.76347137977665"><ele>1003.6666666666667</ele><time>2026-04-19T09:36:33.999Z</time></trkpt><trkpt lat="41.58928834602997" lon="13.763541717514652"><ele>998.0</ele><time>2026-04-19T09:36:35.999Z</time></trkpt><trkpt lat="41.58924243248978" lon="13.763647809997009"><ele>996.7142857142858</ele><time>2026-04-19T09:36:37.999Z</time></trkpt><trkpt lat="41.58925386629526" lon="13.763735281109147"><ele>995.4285714285714</ele><time>2026-04-19T09:36:43.999Z</time></trkpt><trkpt lat="41.58926462106495" lon="13.76383018416328"><ele>994.1428571428571</ele><time>2026-04-19T09:36:47.999Z</time></trkpt><trkpt lat="41.58923787099912" lon="13.763918094332595"><ele>992.8571428571429</ele><time>2026-04-19T09:36:50.999Z</time></trkpt><trkpt lat="41.58921529950048" lon="13.764004229361113"><ele>991.5714285714284</ele><time>2026-04-19T09:36:54.999Z</time></trkpt><trkpt lat="41.589207168241245" lon="13.76410335092249"><ele>990.2857142857142</ele><time>2026-04-19T09:37:09.999Z</time></trkpt><trkpt lat="41.589185300949396" lon="13.764211298919477"><ele>989.0</ele><time>2026-04-19T09:37:12.999Z</time></trkpt><trkpt lat="41.58915414470783" lon="13.764290291880043"><ele>988.0000000000001</ele><time>2026-04-19T09:37:15.999Z</time></trkpt><trkpt lat="41.589125622310505" lon="13.764397040893899"><ele>987.0</ele><time>2026-04-19T09:37:19.999Z</time></trkpt><trkpt lat="41.58909485099754" lon="13.764485951197978"><ele>986.0</ele><time>2026-04-19T09:37:21.999Z</time></trkpt><trkpt lat="41.589055949723935" lon="13.764562083564403"><ele>985.0</ele><time>2026-04-19T09:37:24.999Z</time></trkpt><trkpt lat="41.58903659671895" lon="13.764660167191128"><ele>984.0000000000001</ele><time>2026-04-19T09:37:29Z</time></trkpt><trkpt lat="41.58900857844776" lon="13.764750431352525"><ele>983.0</ele><time>2026-04-19T09:37:31Z</time></trkpt><trkpt lat="41.58899392704877" lon="13.764871772707183"><ele>982.9999999999999</ele><time>2026-04-19T09:37:35Z</time></trkpt><trkpt lat="41.589015763759626" lon="13.76497740696007"><ele>983.0</ele><time>2026-04-19T09:37:39Z</time></trkpt><trkpt lat="41.589000885037144" lon="13.765073253191002"><ele>982.9999999999999</ele><time>2026-04-19T09:37:42Z</time></trkpt><trkpt lat="41.58898084173422" lon="13.765172351770575"><ele>982.9999999999999</ele><time>2026-04-19T09:37:45Z</time></trkpt><trkpt lat="41.58895860836338" lon="13.765258031479773"><ele>983.0</ele><time>2026-04-19T09:37:48Z</time></trkpt><trkpt lat="41.588926253583196" lon="13.765356661177641"><ele>982.9999999999999</ele><time>2026-04-19T09:37:52Z</time></trkpt><trkpt lat="41.58891766513326" lon="13.76544386259019"><ele>982.9999999999999</ele><time>2026-04-19T09:37:57Z</time></trkpt><trkpt lat="41.58890445919507" lon="13.765546160554711"><ele>981.3333333333334</ele><time>2026-04-19T09:38:02Z</time></trkpt><trkpt lat="41.58886703650943" lon="13.765624472029975"><ele>979.6666666666667</ele><time>2026-04-19T09:38:05Z</time></trkpt><trkpt lat="41.58885382191769" lon="13.765719226771797"><ele>978.0</ele><time>2026-04-19T09:38:07Z</time></trkpt><trkpt lat="41.58876430936385" lon="13.7657593131683"><ele>976.3333333333333</ele><time>2026-04-19T09:38:21Z</time></trkpt><trkpt lat="41.588736189217855" lon="13.765858059157216"><ele>974.6666666666666</ele><time>2026-04-19T09:38:28.999Z</time></trkpt><trkpt lat="41.588720125141755" lon="13.76594292624717"><ele>973.0</ele><time>2026-04-19T09:38:30.999Z</time></trkpt><trkpt lat="41.588731171571276" lon="13.766036999512698"><ele>970.9999999999999</ele><time>2026-04-19T09:38:32.999Z</time></trkpt><trkpt lat="41.58873191995181" lon="13.766140585163775"><ele>969.0</ele><time>2026-04-19T09:38:35.999Z</time></trkpt><trkpt lat="41.58870747167538" lon="13.766248598057961"><ele>967.0</ele><time>2026-04-19T09:38:40.999Z</time></trkpt><trkpt lat="41.5887110913908" lon="13.766345568565393"><ele>965.0</ele><time>2026-04-19T09:38:42.999Z</time></trkpt><trkpt lat="41.58871208463931" lon="13.76647104450283"><ele>962.9999999999999</ele><time>2026-04-19T09:38:46.999Z</time></trkpt><trkpt lat="41.58869419599448" lon="13.766578759486649"><ele>961.0</ele><time>2026-04-19T09:38:50.999Z</time></trkpt><trkpt lat="41.58867841128511" lon="13.7666930440657"><ele>958.1666666666666</ele><time>2026-04-19T09:38:53.999Z</time></trkpt><trkpt lat="41.58865324493173" lon="13.766794164634812"><ele>955.3333333333333</ele><time>2026-04-19T09:38:56.999Z</time></trkpt><trkpt lat="41.5886136448643" lon="13.766885429063896"><ele>952.5</ele><time>2026-04-19T09:38:59.999Z</time></trkpt><trkpt lat="41.58858326545072" lon="13.766987848245604"><ele>949.6666666666667</ele><time>2026-04-19T09:39:01.999Z</time></trkpt><trkpt lat="41.58852840744456" lon="13.767082838139562"><ele>946.8333333333334</ele><time>2026-04-19T09:39:04.999Z</time></trkpt><trkpt lat="41.58845118576663" lon="13.767113528380445"><ele>944.0</ele><time>2026-04-19T09:39:07.999Z</time></trkpt><trkpt lat="41.588385436079534" lon="13.767087704825995"><ele>924.0</ele><time>2026-04-19T09:39:13.999Z</time></trkpt><trkpt lat="41.58836472874327" lon="13.767167967058501"><ele>924.0</ele><time>2026-04-19T09:39:22.999Z</time></trkpt><trkpt lat="41.58831448980299" lon="13.767251171944812"><ele>924.0</ele><time>2026-04-19T09:39:26.999Z</time></trkpt><trkpt lat="41.588240781975905" lon="13.767291207845703"><ele>924.0</ele><time>2026-04-19T09:39:43Z</time></trkpt></trkseg></trk></gpx>